sensor_id;sensor_type;location;lat;lon;timestamp;P1;durP1;ratioP1;P2;durP2;ratioP2
9306;SDS011;4691;47.612;7.610;2023-01-30T00:00:12;46.90;;;24.48;;
9306;SDS011;4691;47.612;7.610;2023-01-30T00:02:38;50.22;;;23.52;;
9306;SDS011;4691;47.612;7.610;2023-01-30T00:05:03;49.13;;;23.70;;
9306;SDS011;4691;47.612;7.610;2023-01-30T00:07:28;49.47;;;24.75;;
9306;SDS011;4691;47.612;7.610;2023-01-30T00:09:54;55.72;;;24.40;;
9306;SDS011;4691;47.612;7.610;2023-01-30T00:12:19;51.42;;;25.08;;
9306;SDS011;4691;47.612;7.610;2023-01-30T00:14:44;56.25;;;26.15;;
9306;SDS011;4691;47.612;7.610;2023-01-30T00:17:10;51.92;;;24.60;;
9306;SDS011;4691;47.612;7.610;2023-01-30T00:19:35;52.72;;;24.92;;
9306;SDS011;4691;47.612;7.610;2023-01-30T00:22:00;55.95;;;24.88;;
9306;SDS011;4691;47.612;7.610;2023-01-30T00:24:25;50.72;;;24.30;;
9306;SDS011;4691;47.612;7.610;2023-01-30T00:26:51;55.67;;;26.55;;
9306;SDS011;4691;47.612;7.610;2023-01-30T00:29:16;58.03;;;26.60;;
9306;SDS011;4691;47.612;7.610;2023-01-30T00:31:41;54.50;;;27.23;;
9306;SDS011;4691;47.612;7.610;2023-01-30T00:34:07;49.63;;;24.40;;
9306;SDS011;4691;47.612;7.610;2023-01-30T00:36:32;52.83;;;24.50;;
9306;SDS011;4691;47.612;7.610;2023-01-30T00:38:57;55.05;;;23.75;;
9306;SDS011;4691;47.612;7.610;2023-01-30T00:41:23;58.17;;;24.35;;
9306;SDS011;4691;47.612;7.610;2023-01-30T00:43:48;49.90;;;23.05;;
9306;SDS011;4691;47.612;7.610;2023-01-30T00:46:32;50.78;;;22.08;;
9306;SDS011;4691;47.612;7.610;2023-01-30T00:49:17;47.40;;;22.20;;
9306;SDS011;4691;47.612;7.610;2023-01-30T00:51:42;56.20;;;24.15;;
9306;SDS011;4691;47.612;7.610;2023-01-30T00:54:07;46.83;;;22.50;;
9306;SDS011;4691;47.612;7.610;2023-01-30T00:56:33;50.20;;;21.95;;
9306;SDS011;4691;47.612;7.610;2023-01-30T00:58:58;47.08;;;21.73;;
9306;SDS011;4691;47.612;7.610;2023-01-30T01:01:24;51.55;;;21.92;;
9306;SDS011;4691;47.612;7.610;2023-01-30T01:03:49;47.42;;;21.25;;
9306;SDS011;4691;47.612;7.610;2023-01-30T01:06:14;43.65;;;21.33;;
9306;SDS011;4691;47.612;7.610;2023-01-30T01:08:40;55.13;;;23.48;;
9306;SDS011;4691;47.612;7.610;2023-01-30T01:11:05;48.42;;;22.52;;
9306;SDS011;4691;47.612;7.610;2023-01-30T01:13:31;46.08;;;21.80;;
9306;SDS011;4691;47.612;7.610;2023-01-30T01:15:56;46.85;;;22.23;;
9306;SDS011;4691;47.612;7.610;2023-01-30T01:18:21;46.55;;;22.48;;
9306;SDS011;4691;47.612;7.610;2023-01-30T01:20:46;46.45;;;21.85;;
9306;SDS011;4691;47.612;7.610;2023-01-30T01:23:12;40.58;;;19.40;;
9306;SDS011;4691;47.612;7.610;2023-01-30T01:25:37;44.47;;;20.63;;
9306;SDS011;4691;47.612;7.610;2023-01-30T01:28:03;41.70;;;19.80;;
9306;SDS011;4691;47.612;7.610;2023-01-30T01:30:28;42.05;;;20.65;;
9306;SDS011;4691;47.612;7.610;2023-01-30T01:32:53;47.55;;;21.33;;
9306;SDS011;4691;47.612;7.610;2023-01-30T01:35:20;48.47;;;21.63;;
9306;SDS011;4691;47.612;7.610;2023-01-30T01:37:45;46.10;;;20.65;;
9306;SDS011;4691;47.612;7.610;2023-01-30T01:40:14;49.53;;;20.83;;
9306;SDS011;4691;47.612;7.610;2023-01-30T01:45:28;42.15;;;17.55;;
9306;SDS011;4691;47.612;7.610;2023-01-30T01:47:58;45.35;;;19.58;;
9306;SDS011;4691;47.612;7.610;2023-01-30T01:50:43;44.85;;;20.73;;
9306;SDS011;4691;47.612;7.610;2023-01-30T01:53:14;40.42;;;19.58;;
9306;SDS011;4691;47.612;7.610;2023-01-30T01:55:43;43.00;;;20.17;;
9306;SDS011;4691;47.612;7.610;2023-01-30T01:58:12;46.30;;;19.75;;
9306;SDS011;4691;47.612;7.610;2023-01-30T02:00:43;42.78;;;20.38;;
9306;SDS011;4691;47.612;7.610;2023-01-30T02:03:11;44.28;;;19.02;;
9306;SDS011;4691;47.612;7.610;2023-01-30T02:05:42;44.47;;;19.60;;
9306;SDS011;4691;47.612;7.610;2023-01-30T02:08:11;41.72;;;19.65;;
9306;SDS011;4691;47.612;7.610;2023-01-30T02:10:45;40.85;;;18.83;;
9306;SDS011;4691;47.612;7.610;2023-01-30T02:13:15;41.75;;;19.80;;
9306;SDS011;4691;47.612;7.610;2023-01-30T02:15:41;44.28;;;20.45;;
9306;SDS011;4691;47.612;7.610;2023-01-30T02:18:07;44.03;;;20.08;;
9306;SDS011;4691;47.612;7.610;2023-01-30T02:30:59;45.35;;;20.58;;
9306;SDS011;4691;47.612;7.610;2023-01-30T02:36:42;44.65;;;20.88;;
9306;SDS011;4691;47.612;7.610;2023-01-30T02:42:19;44.85;;;20.55;;
9306;SDS011;4691;47.612;7.610;2023-01-30T02:45:08;49.58;;;22.15;;
9306;SDS011;4691;47.612;7.610;2023-01-30T02:47:37;44.78;;;19.98;;
9306;SDS011;4691;47.612;7.610;2023-01-30T02:50:07;49.33;;;22.48;;
9306;SDS011;4691;47.612;7.610;2023-01-30T02:52:38;43.90;;;19.52;;
9306;SDS011;4691;47.612;7.610;2023-01-30T02:55:17;45.45;;;20.08;;
9306;SDS011;4691;47.612;7.610;2023-01-30T02:57:44;46.70;;;20.35;;
9306;SDS011;4691;47.612;7.610;2023-01-30T03:00:10;44.17;;;19.92;;
9306;SDS011;4691;47.612;7.610;2023-01-30T03:08:09;46.80;;;20.75;;
9306;SDS011;4691;47.612;7.610;2023-01-30T03:10:44;41.60;;;19.25;;
9306;SDS011;4691;47.612;7.610;2023-01-30T03:13:19;51.40;;;22.10;;
9306;SDS011;4691;47.612;7.610;2023-01-30T03:19:30;43.95;;;19.00;;
9306;SDS011;4691;47.612;7.610;2023-01-30T03:21:56;43.55;;;19.80;;
9306;SDS011;4691;47.612;7.610;2023-01-30T03:24:21;47.80;;;21.45;;
9306;SDS011;4691;47.612;7.610;2023-01-30T03:26:53;46.88;;;20.73;;
9306;SDS011;4691;47.612;7.610;2023-01-30T03:29:32;46.75;;;21.20;;
9306;SDS011;4691;47.612;7.610;2023-01-30T03:31:58;46.75;;;21.52;;
9306;SDS011;4691;47.612;7.610;2023-01-30T03:34:23;46.88;;;19.65;;
9306;SDS011;4691;47.612;7.610;2023-01-30T03:36:48;43.30;;;20.48;;
9306;SDS011;4691;47.612;7.610;2023-01-30T03:39:14;50.22;;;21.52;;
9306;SDS011;4691;47.612;7.610;2023-01-30T03:41:39;43.60;;;20.15;;
9306;SDS011;4691;47.612;7.610;2023-01-30T03:44:05;43.10;;;20.40;;
9306;SDS011;4691;47.612;7.610;2023-01-30T03:46:30;48.05;;;21.30;;
9306;SDS011;4691;47.612;7.610;2023-01-30T03:48:55;44.45;;;20.58;;
9306;SDS011;4691;47.612;7.610;2023-01-30T03:51:21;44.63;;;20.50;;
9306;SDS011;4691;47.612;7.610;2023-01-30T03:53:46;41.90;;;20.45;;
9306;SDS011;4691;47.612;7.610;2023-01-30T03:56:11;48.42;;;22.20;;
9306;SDS011;4691;47.612;7.610;2023-01-30T03:58:36;45.50;;;20.38;;
9306;SDS011;4691;47.612;7.610;2023-01-30T04:01:02;48.17;;;20.98;;
9306;SDS011;4691;47.612;7.610;2023-01-30T04:03:27;44.25;;;20.20;;
9306;SDS011;4691;47.612;7.610;2023-01-30T04:05:52;45.83;;;20.52;;
9306;SDS011;4691;47.612;7.610;2023-01-30T04:08:18;45.30;;;20.17;;
9306;SDS011;4691;47.612;7.610;2023-01-30T04:10:43;44.10;;;20.13;;
9306;SDS011;4691;47.612;7.610;2023-01-30T04:13:08;44.60;;;19.50;;
9306;SDS011;4691;47.612;7.610;2023-01-30T04:15:33;45.03;;;20.23;;
9306;SDS011;4691;47.612;7.610;2023-01-30T04:17:59;48.13;;;21.42;;
9306;SDS011;4691;47.612;7.610;2023-01-30T04:20:24;43.58;;;21.08;;
9306;SDS011;4691;47.612;7.610;2023-01-30T04:22:49;48.05;;;20.77;;
9306;SDS011;4691;47.612;7.610;2023-01-30T04:25:15;50.03;;;20.92;;
9306;SDS011;4691;47.612;7.610;2023-01-30T04:27:40;46.45;;;21.05;;
9306;SDS011;4691;47.612;7.610;2023-01-30T04:30:05;41.03;;;17.90;;
9306;SDS011;4691;47.612;7.610;2023-01-30T04:32:31;42.70;;;19.50;;
9306;SDS011;4691;47.612;7.610;2023-01-30T04:34:57;43.90;;;18.65;;
9306;SDS011;4691;47.612;7.610;2023-01-30T04:37:22;41.33;;;18.77;;
9306;SDS011;4691;47.612;7.610;2023-01-30T04:39:47;40.58;;;18.52;;
9306;SDS011;4691;47.612;7.610;2023-01-30T04:42:13;40.53;;;18.60;;
9306;SDS011;4691;47.612;7.610;2023-01-30T04:44:39;41.83;;;18.90;;
9306;SDS011;4691;47.612;7.610;2023-01-30T04:47:04;39.85;;;19.58;;
9306;SDS011;4691;47.612;7.610;2023-01-30T04:49:29;44.05;;;19.42;;
9306;SDS011;4691;47.612;7.610;2023-01-30T04:51:54;38.20;;;18.23;;
9306;SDS011;4691;47.612;7.610;2023-01-30T04:54:20;46.03;;;18.85;;
9306;SDS011;4691;47.612;7.610;2023-01-30T04:56:45;40.60;;;19.48;;
9306;SDS011;4691;47.612;7.610;2023-01-30T04:59:10;41.28;;;18.50;;
9306;SDS011;4691;47.612;7.610;2023-01-30T05:01:36;37.95;;;18.48;;
9306;SDS011;4691;47.612;7.610;2023-01-30T05:04:03;44.40;;;20.88;;
9306;SDS011;4691;47.612;7.610;2023-01-30T05:06:29;38.35;;;18.20;;
9306;SDS011;4691;47.612;7.610;2023-01-30T05:08:55;42.53;;;18.77;;
9306;SDS011;4691;47.612;7.610;2023-01-30T05:11:21;39.20;;;19.20;;
9306;SDS011;4691;47.612;7.610;2023-01-30T05:13:48;44.63;;;19.85;;
9306;SDS011;4691;47.612;7.610;2023-01-30T05:16:14;43.10;;;20.17;;
9306;SDS011;4691;47.612;7.610;2023-01-30T05:18:40;38.92;;;18.33;;
9306;SDS011;4691;47.612;7.610;2023-01-30T05:21:06;39.83;;;18.85;;
9306;SDS011;4691;47.612;7.610;2023-01-30T05:23:33;39.33;;;18.40;;
9306;SDS011;4691;47.612;7.610;2023-01-30T05:25:59;42.22;;;20.13;;
9306;SDS011;4691;47.612;7.610;2023-01-30T05:28:25;41.13;;;18.50;;
9306;SDS011;4691;47.612;7.610;2023-01-30T05:30:50;45.28;;;18.75;;
9306;SDS011;4691;47.612;7.610;2023-01-30T05:33:16;38.15;;;17.05;;
9306;SDS011;4691;47.612;7.610;2023-01-30T05:35:47;41.47;;;19.83;;
9306;SDS011;4691;47.612;7.610;2023-01-30T05:38:13;41.60;;;19.48;;
9306;SDS011;4691;47.612;7.610;2023-01-30T05:40:39;39.15;;;18.75;;
9306;SDS011;4691;47.612;7.610;2023-01-30T05:43:05;40.65;;;17.85;;
9306;SDS011;4691;47.612;7.610;2023-01-30T05:45:30;43.25;;;19.95;;
9306;SDS011;4691;47.612;7.610;2023-01-30T05:47:55;40.47;;;19.15;;
9306;SDS011;4691;47.612;7.610;2023-01-30T05:50:20;47.58;;;22.10;;
9306;SDS011;4691;47.612;7.610;2023-01-30T05:52:46;37.83;;;17.92;;
9306;SDS011;4691;47.612;7.610;2023-01-30T05:55:11;38.20;;;18.52;;
9306;SDS011;4691;47.612;7.610;2023-01-30T05:57:37;46.85;;;19.48;;
9306;SDS011;4691;47.612;7.610;2023-01-30T06:00:02;38.72;;;18.20;;
9306;SDS011;4691;47.612;7.610;2023-01-30T06:02:29;50.70;;;20.60;;
9306;SDS011;4691;47.612;7.610;2023-01-30T06:04:55;49.33;;;20.83;;
9306;SDS011;4691;47.612;7.610;2023-01-30T06:07:20;43.85;;;19.40;;
9306;SDS011;4691;47.612;7.610;2023-01-30T06:09:46;46.00;;;19.23;;
9306;SDS011;4691;47.612;7.610;2023-01-30T06:12:11;38.35;;;18.63;;
9306;SDS011;4691;47.612;7.610;2023-01-30T06:14:36;41.85;;;19.55;;
9306;SDS011;4691;47.612;7.610;2023-01-30T06:17:02;38.67;;;18.13;;
9306;SDS011;4691;47.612;7.610;2023-01-30T06:19:27;37.40;;;17.08;;
9306;SDS011;4691;47.612;7.610;2023-01-30T06:21:52;40.80;;;18.20;;
9306;SDS011;4691;47.612;7.610;2023-01-30T06:24:17;38.80;;;17.85;;
9306;SDS011;4691;47.612;7.610;2023-01-30T06:26:43;41.15;;;19.30;;
9306;SDS011;4691;47.612;7.610;2023-01-30T06:29:08;44.10;;;19.60;;
9306;SDS011;4691;47.612;7.610;2023-01-30T06:31:33;39.50;;;19.30;;
9306;SDS011;4691;47.612;7.610;2023-01-30T06:33:58;41.03;;;19.17;;
9306;SDS011;4691;47.612;7.610;2023-01-30T06:36:24;36.47;;;18.38;;
9306;SDS011;4691;47.612;7.610;2023-01-30T06:38:49;38.78;;;17.90;;
9306;SDS011;4691;47.612;7.610;2023-01-30T06:41:14;36.38;;;18.13;;
9306;SDS011;4691;47.612;7.610;2023-01-30T06:43:40;44.38;;;22.30;;
9306;SDS011;4691;47.612;7.610;2023-01-30T06:46:06;42.20;;;20.30;;
9306;SDS011;4691;47.612;7.610;2023-01-30T06:48:31;40.38;;;18.83;;
9306;SDS011;4691;47.612;7.610;2023-01-30T06:50:57;37.67;;;17.58;;
9306;SDS011;4691;47.612;7.610;2023-01-30T06:53:22;51.38;;;22.20;;
9306;SDS011;4691;47.612;7.610;2023-01-30T06:55:54;44.13;;;21.17;;
9306;SDS011;4691;47.612;7.610;2023-01-30T06:58:19;41.25;;;18.50;;
9306;SDS011;4691;47.612;7.610;2023-01-30T07:00:45;40.85;;;18.77;;
9306;SDS011;4691;47.612;7.610;2023-01-30T07:03:11;41.60;;;19.33;;
9306;SDS011;4691;47.612;7.610;2023-01-30T07:05:38;38.03;;;18.58;;
9306;SDS011;4691;47.612;7.610;2023-01-30T07:08:05;44.30;;;19.55;;
9306;SDS011;4691;47.612;7.610;2023-01-30T07:10:30;43.25;;;19.85;;
9306;SDS011;4691;47.612;7.610;2023-01-30T07:12:57;41.83;;;18.90;;
9306;SDS011;4691;47.612;7.610;2023-01-30T07:15:22;46.97;;;22.17;;
9306;SDS011;4691;47.612;7.610;2023-01-30T07:17:47;41.10;;;18.83;;
9306;SDS011;4691;47.612;7.610;2023-01-30T07:20:13;39.92;;;18.35;;
9306;SDS011;4691;47.612;7.610;2023-01-30T07:22:38;43.38;;;19.17;;
9306;SDS011;4691;47.612;7.610;2023-01-30T07:25:04;38.90;;;18.75;;
9306;SDS011;4691;47.612;7.610;2023-01-30T07:27:30;40.55;;;18.52;;
9306;SDS011;4691;47.612;7.610;2023-01-30T07:29:55;39.90;;;18.77;;
9306;SDS011;4691;47.612;7.610;2023-01-30T07:32:20;35.80;;;16.42;;
9306;SDS011;4691;47.612;7.610;2023-01-30T07:34:46;40.97;;;18.27;;
9306;SDS011;4691;47.612;7.610;2023-01-30T07:37:12;38.08;;;16.83;;
9306;SDS011;4691;47.612;7.610;2023-01-30T07:39:37;46.35;;;19.05;;
9306;SDS011;4691;47.612;7.610;2023-01-30T07:42:02;41.72;;;18.13;;
9306;SDS011;4691;47.612;7.610;2023-01-30T07:44:28;48.55;;;20.48;;
9306;SDS011;4691;47.612;7.610;2023-01-30T07:46:54;40.08;;;17.48;;
9306;SDS011;4691;47.612;7.610;2023-01-30T07:49:19;41.60;;;19.13;;
9306;SDS011;4691;47.612;7.610;2023-01-30T07:51:45;40.75;;;17.85;;
9306;SDS011;4691;47.612;7.610;2023-01-30T07:54:10;46.45;;;21.88;;
9306;SDS011;4691;47.612;7.610;2023-01-30T07:56:36;39.83;;;18.17;;
9306;SDS011;4691;47.612;7.610;2023-01-30T07:59:01;42.58;;;16.92;;
9306;SDS011;4691;47.612;7.610;2023-01-30T08:01:26;38.70;;;17.42;;
9306;SDS011;4691;47.612;7.610;2023-01-30T08:03:52;40.40;;;18.08;;
9306;SDS011;4691;47.612;7.610;2023-01-30T08:06:17;40.88;;;18.05;;
9306;SDS011;4691;47.612;7.610;2023-01-30T08:08:42;38.00;;;17.08;;
9306;SDS011;4691;47.612;7.610;2023-01-30T08:11:08;39.03;;;18.30;;
9306;SDS011;4691;47.612;7.610;2023-01-30T08:13:34;33.35;;;16.60;;
9306;SDS011;4691;47.612;7.610;2023-01-30T08:16:02;35.80;;;16.45;;
9306;SDS011;4691;47.612;7.610;2023-01-30T08:18:29;39.20;;;17.90;;
9306;SDS011;4691;47.612;7.610;2023-01-30T08:20:56;32.22;;;16.23;;
9306;SDS011;4691;47.612;7.610;2023-01-30T08:23:22;37.97;;;17.52;;
9306;SDS011;4691;47.612;7.610;2023-01-30T08:25:47;37.70;;;17.60;;
9306;SDS011;4691;47.612;7.610;2023-01-30T08:28:12;39.10;;;17.98;;
9306;SDS011;4691;47.612;7.610;2023-01-30T08:30:39;73.05;;;31.85;;
9306;SDS011;4691;47.612;7.610;2023-01-30T08:33:05;41.20;;;18.65;;
9306;SDS011;4691;47.612;7.610;2023-01-30T08:35:30;39.25;;;19.38;;
9306;SDS011;4691;47.612;7.610;2023-01-30T08:37:56;40.35;;;18.73;;
9306;SDS011;4691;47.612;7.610;2023-01-30T08:40:21;39.70;;;17.77;;
9306;SDS011;4691;47.612;7.610;2023-01-30T08:42:46;35.05;;;16.88;;
9306;SDS011;4691;47.612;7.610;2023-01-30T08:45:12;36.83;;;16.73;;
9306;SDS011;4691;47.612;7.610;2023-01-30T08:47:37;34.33;;;17.25;;
9306;SDS011;4691;47.612;7.610;2023-01-30T08:50:03;42.85;;;19.70;;
9306;SDS011;4691;47.612;7.610;2023-01-30T08:52:28;39.97;;;19.13;;
9306;SDS011;4691;47.612;7.610;2023-01-30T08:54:54;41.70;;;19.98;;
9306;SDS011;4691;47.612;7.610;2023-01-30T08:57:19;38.17;;;18.27;;
9306;SDS011;4691;47.612;7.610;2023-01-30T08:59:44;36.05;;;18.10;;
9306;SDS011;4691;47.612;7.610;2023-01-30T09:02:10;37.15;;;17.00;;
9306;SDS011;4691;47.612;7.610;2023-01-30T09:04:36;36.15;;;17.30;;
9306;SDS011;4691;47.612;7.610;2023-01-30T09:07:01;44.28;;;18.98;;
9306;SDS011;4691;47.612;7.610;2023-01-30T09:09:27;34.60;;;17.38;;
9306;SDS011;4691;47.612;7.610;2023-01-30T09:11:53;39.10;;;18.45;;
9306;SDS011;4691;47.612;7.610;2023-01-30T09:14:18;36.10;;;19.50;;
9306;SDS011;4691;47.612;7.610;2023-01-30T09:16:47;43.45;;;18.48;;
9306;SDS011;4691;47.612;7.610;2023-01-30T09:19:23;34.30;;;16.95;;
9306;SDS011;4691;47.612;7.610;2023-01-30T09:21:51;41.63;;;17.45;;
9306;SDS011;4691;47.612;7.610;2023-01-30T09:24:17;33.97;;;16.40;;
9306;SDS011;4691;47.612;7.610;2023-01-30T09:26:43;35.05;;;17.52;;
9306;SDS011;4691;47.612;7.610;2023-01-30T09:29:13;35.83;;;17.25;;
9306;SDS011;4691;47.612;7.610;2023-01-30T09:31:39;35.53;;;16.55;;
9306;SDS011;4691;47.612;7.610;2023-01-30T09:34:05;37.08;;;17.00;;
9306;SDS011;4691;47.612;7.610;2023-01-30T09:36:31;35.78;;;16.02;;
9306;SDS011;4691;47.612;7.610;2023-01-30T09:38:56;34.42;;;16.42;;
9306;SDS011;4691;47.612;7.610;2023-01-30T09:41:31;37.80;;;17.88;;
9306;SDS011;4691;47.612;7.610;2023-01-30T09:47:14;34.65;;;16.85;;
9306;SDS011;4691;47.612;7.610;2023-01-30T09:54:52;36.05;;;17.05;;
9306;SDS011;4691;47.612;7.610;2023-01-30T09:57:24;42.05;;;18.67;;
9306;SDS011;4691;47.612;7.610;2023-01-30T09:59:53;39.25;;;17.23;;
9306;SDS011;4691;47.612;7.610;2023-01-30T10:02:30;34.55;;;16.02;;
9306;SDS011;4691;47.612;7.610;2023-01-30T10:05:01;34.20;;;17.48;;
9306;SDS011;4691;47.612;7.610;2023-01-30T10:16:29;34.58;;;16.95;;
9306;SDS011;4691;47.612;7.610;2023-01-30T10:21:54;35.72;;;17.73;;
9306;SDS011;4691;47.612;7.610;2023-01-30T10:24:30;34.95;;;18.15;;
9306;SDS011;4691;47.612;7.610;2023-01-30T10:29:43;29.73;;;16.48;;
9306;SDS011;4691;47.612;7.610;2023-01-30T10:34:41;33.40;;;18.05;;
9306;SDS011;4691;47.612;7.610;2023-01-30T10:39:51;29.00;;;17.42;;
9306;SDS011;4691;47.612;7.610;2023-01-30T10:42:33;31.02;;;17.02;;
9306;SDS011;4691;47.612;7.610;2023-01-30T10:45:53;35.30;;;20.20;;
9306;SDS011;4691;47.612;7.610;2023-01-30T10:54:27;33.15;;;17.10;;
9306;SDS011;4691;47.612;7.610;2023-01-30T10:57:10;34.58;;;15.82;;
9306;SDS011;4691;47.612;7.610;2023-01-30T10:59:57;30.83;;;15.63;;
9306;SDS011;4691;47.612;7.610;2023-01-30T11:04:58;32.55;;;15.75;;
9306;SDS011;4691;47.612;7.610;2023-01-30T11:07:29;32.05;;;15.30;;
9306;SDS011;4691;47.612;7.610;2023-01-30T11:09:56;33.00;;;15.82;;
9306;SDS011;4691;47.612;7.610;2023-01-30T11:12:23;30.58;;;16.02;;
9306;SDS011;4691;47.612;7.610;2023-01-30T11:14:51;32.53;;;15.45;;
9306;SDS011;4691;47.612;7.610;2023-01-30T11:17:27;32.88;;;15.05;;
9306;SDS011;4691;47.612;7.610;2023-01-30T11:20:00;35.22;;;16.95;;
9306;SDS011;4691;47.612;7.610;2023-01-30T11:22:31;31.95;;;16.10;;
9306;SDS011;4691;47.612;7.610;2023-01-30T11:24:59;31.38;;;15.50;;
9306;SDS011;4691;47.612;7.610;2023-01-30T11:27:28;31.25;;;15.48;;
9306;SDS011;4691;47.612;7.610;2023-01-30T11:32:39;30.67;;;15.95;;
9306;SDS011;4691;47.612;7.610;2023-01-30T11:37:32;29.10;;;15.13;;
9306;SDS011;4691;47.612;7.610;2023-01-30T11:39:58;33.63;;;17.20;;
9306;SDS011;4691;47.612;7.610;2023-01-30T11:42:25;26.90;;;14.80;;
9306;SDS011;4691;47.612;7.610;2023-01-30T11:44:56;28.50;;;15.45;;
9306;SDS011;4691;47.612;7.610;2023-01-30T11:47:24;29.90;;;15.32;;
9306;SDS011;4691;47.612;7.610;2023-01-30T11:49:53;25.30;;;13.77;;
9306;SDS011;4691;47.612;7.610;2023-01-30T11:52:34;27.67;;;14.10;;
9306;SDS011;4691;47.612;7.610;2023-01-30T11:55:12;28.77;;;15.70;;
9306;SDS011;4691;47.612;7.610;2023-01-30T11:57:42;29.53;;;15.10;;
9306;SDS011;4691;47.612;7.610;2023-01-30T12:00:21;27.17;;;14.25;;
9306;SDS011;4691;47.612;7.610;2023-01-30T12:02:49;28.48;;;14.38;;
9306;SDS011;4691;47.612;7.610;2023-01-30T12:05:22;24.20;;;12.73;;
9306;SDS011;4691;47.612;7.610;2023-01-30T12:08:10;25.55;;;13.00;;
9306;SDS011;4691;47.612;7.610;2023-01-30T12:10:49;24.08;;;12.93;;
9306;SDS011;4691;47.612;7.610;2023-01-30T12:15:49;24.38;;;13.10;;
9306;SDS011;4691;47.612;7.610;2023-01-30T12:18:22;25.58;;;12.05;;
9306;SDS011;4691;47.612;7.610;2023-01-30T12:23:30;24.30;;;12.20;;
9306;SDS011;4691;47.612;7.610;2023-01-30T12:26:04;19.08;;;10.70;;
9306;SDS011;4691;47.612;7.610;2023-01-30T12:31:18;20.52;;;9.95;;
9306;SDS011;4691;47.612;7.610;2023-01-30T12:33:48;20.90;;;10.38;;
9306;SDS011;4691;47.612;7.610;2023-01-30T12:36:23;22.98;;;10.20;;
9306;SDS011;4691;47.612;7.610;2023-01-30T12:41:54;21.48;;;11.02;;
9306;SDS011;4691;47.612;7.610;2023-01-30T12:55:17;22.88;;;11.30;;
9306;SDS011;4691;47.612;7.610;2023-01-30T13:03:28;18.52;;;10.02;;
9306;SDS011;4691;47.612;7.610;2023-01-30T13:08:46;18.45;;;9.15;;
9306;SDS011;4691;47.612;7.610;2023-01-30T13:14:20;19.25;;;10.05;;
9306;SDS011;4691;47.612;7.610;2023-01-30T13:16:58;31.15;;;10.77;;
9306;SDS011;4691;47.612;7.610;2023-01-30T13:19:39;19.67;;;10.20;;
9306;SDS011;4691;47.612;7.610;2023-01-30T13:28:19;21.33;;;11.73;;
9306;SDS011;4691;47.612;7.610;2023-01-30T13:30:49;23.58;;;11.13;;
9306;SDS011;4691;47.612;7.610;2023-01-30T13:33:27;23.58;;;11.93;;
9306;SDS011;4691;47.612;7.610;2023-01-30T13:38:35;32.55;;;12.63;;
9306;SDS011;4691;47.612;7.610;2023-01-30T13:41:07;24.27;;;12.38;;
9306;SDS011;4691;47.612;7.610;2023-01-30T13:43:37;28.08;;;13.57;;
9306;SDS011;4691;47.612;7.610;2023-01-30T13:46:08;30.95;;;15.90;;
9306;SDS011;4691;47.612;7.610;2023-01-30T13:51:32;37.70;;;16.63;;
9306;SDS011;4691;47.612;7.610;2023-01-30T13:54:34;39.05;;;17.65;;
9306;SDS011;4691;47.612;7.610;2023-01-30T14:02:16;39.25;;;18.75;;
9306;SDS011;4691;47.612;7.610;2023-01-30T14:04:45;46.45;;;20.30;;
9306;SDS011;4691;47.612;7.610;2023-01-30T14:07:31;44.10;;;21.92;;
9306;SDS011;4691;47.612;7.610;2023-01-30T14:20:31;36.42;;;18.80;;
9306;SDS011;4691;47.612;7.610;2023-01-30T14:27:54;30.85;;;15.63;;
9306;SDS011;4691;47.612;7.610;2023-01-30T14:38:26;40.15;;;21.13;;
9306;SDS011;4691;47.612;7.610;2023-01-30T14:43:46;30.65;;;16.35;;
9306;SDS011;4691;47.612;7.610;2023-01-30T14:59:22;33.03;;;17.27;;
9306;SDS011;4691;47.612;7.610;2023-01-30T15:01:58;55.80;;;25.70;;
9306;SDS011;4691;47.612;7.610;2023-01-30T15:04:29;77.82;;;32.92;;
9306;SDS011;4691;47.612;7.610;2023-01-30T15:06:57;65.97;;;34.10;;
9306;SDS011;4691;47.612;7.610;2023-01-30T15:09:25;86.63;;;40.90;;
9306;SDS011;4691;47.612;7.610;2023-01-30T15:15:04;39.10;;;20.08;;
9306;SDS011;4691;47.612;7.610;2023-01-30T15:20:34;29.25;;;15.23;;
9306;SDS011;4691;47.612;7.610;2023-01-30T15:31:32;34.83;;;14.23;;
9306;SDS011;4691;47.612;7.610;2023-01-30T15:34:00;23.63;;;11.55;;
9306;SDS011;4691;47.612;7.610;2023-01-30T15:36:27;24.38;;;12.48;;
9306;SDS011;4691;47.612;7.610;2023-01-30T15:38:57;28.90;;;13.65;;
9306;SDS011;4691;47.612;7.610;2023-01-30T15:41:25;24.70;;;12.73;;
9306;SDS011;4691;47.612;7.610;2023-01-30T15:46:55;24.40;;;12.65;;
9306;SDS011;4691;47.612;7.610;2023-01-30T15:52:20;23.40;;;12.20;;
9306;SDS011;4691;47.612;7.610;2023-01-30T15:54:47;26.25;;;12.05;;
9306;SDS011;4691;47.612;7.610;2023-01-30T15:57:16;19.92;;;11.20;;
9306;SDS011;4691;47.612;7.610;2023-01-30T15:59:51;25.63;;;13.82;;
9306;SDS011;4691;47.612;7.610;2023-01-30T16:02:24;26.67;;;13.13;;
9306;SDS011;4691;47.612;7.610;2023-01-30T16:07:44;29.30;;;15.15;;
9306;SDS011;4691;47.612;7.610;2023-01-30T16:10:15;27.98;;;13.98;;
9306;SDS011;4691;47.612;7.610;2023-01-30T16:12:43;24.95;;;12.07;;
9306;SDS011;4691;47.612;7.610;2023-01-30T16:15:13;22.88;;;12.35;;
9306;SDS011;4691;47.612;7.610;2023-01-30T16:17:50;23.15;;;12.85;;
9306;SDS011;4691;47.612;7.610;2023-01-30T16:20:22;29.00;;;14.02;;
9306;SDS011;4691;47.612;7.610;2023-01-30T16:22:47;28.23;;;15.68;;
9306;SDS011;4691;47.612;7.610;2023-01-30T16:25:18;35.15;;;17.77;;
9306;SDS011;4691;47.612;7.610;2023-01-30T16:27:49;26.48;;;12.73;;
9306;SDS011;4691;47.612;7.610;2023-01-30T16:30:24;28.05;;;13.27;;
9306;SDS011;4691;47.612;7.610;2023-01-30T16:32:53;23.63;;;12.57;;
9306;SDS011;4691;47.612;7.610;2023-01-30T16:37:48;23.83;;;13.63;;
9306;SDS011;4691;47.612;7.610;2023-01-30T16:40:15;28.52;;;13.38;;
9306;SDS011;4691;47.612;7.610;2023-01-30T16:42:59;25.00;;;12.30;;
9306;SDS011;4691;47.612;7.610;2023-01-30T16:45:46;28.98;;;13.35;;
9306;SDS011;4691;47.612;7.610;2023-01-30T16:51:03;19.90;;;10.95;;
9306;SDS011;4691;47.612;7.610;2023-01-30T16:53:37;21.77;;;11.77;;
9306;SDS011;4691;47.612;7.610;2023-01-30T16:56:15;23.45;;;11.35;;
9306;SDS011;4691;47.612;7.610;2023-01-30T16:58:43;18.20;;;9.90;;
9306;SDS011;4691;47.612;7.610;2023-01-30T17:01:10;18.52;;;9.75;;
9306;SDS011;4691;47.612;7.610;2023-01-30T17:03:37;16.90;;;9.80;;
9306;SDS011;4691;47.612;7.610;2023-01-30T17:06:19;18.45;;;10.25;;
9306;SDS011;4691;47.612;7.610;2023-01-30T17:08:50;19.23;;;10.52;;
9306;SDS011;4691;47.612;7.610;2023-01-30T17:11:37;19.93;;;9.50;;
9306;SDS011;4691;47.612;7.610;2023-01-30T17:14:23;20.52;;;10.57;;
9306;SDS011;4691;47.612;7.610;2023-01-30T17:17:03;21.85;;;11.23;;
9306;SDS011;4691;47.612;7.610;2023-01-30T17:19:33;20.27;;;10.93;;
9306;SDS011;4691;47.612;7.610;2023-01-30T17:22:00;21.92;;;11.32;;
9306;SDS011;4691;47.612;7.610;2023-01-30T17:24:27;20.77;;;10.82;;
9306;SDS011;4691;47.612;7.610;2023-01-30T17:26:54;23.23;;;11.25;;
9306;SDS011;4691;47.612;7.610;2023-01-30T17:29:25;22.60;;;11.52;;
9306;SDS011;4691;47.612;7.610;2023-01-30T17:31:51;22.08;;;11.82;;
9306;SDS011;4691;47.612;7.610;2023-01-30T17:34:17;20.88;;;11.77;;
9306;SDS011;4691;47.612;7.610;2023-01-30T17:36:44;21.85;;;11.77;;
9306;SDS011;4691;47.612;7.610;2023-01-30T17:39:14;20.75;;;12.23;;
9306;SDS011;4691;47.612;7.610;2023-01-30T17:41:42;22.20;;;10.90;;
9306;SDS011;4691;47.612;7.610;2023-01-30T17:44:09;21.08;;;10.65;;
9306;SDS011;4691;47.612;7.610;2023-01-30T17:46:36;24.02;;;11.45;;
9306;SDS011;4691;47.612;7.610;2023-01-30T17:49:12;21.08;;;12.23;;
9306;SDS011;4691;47.612;7.610;2023-01-30T17:51:42;24.13;;;13.90;;
9306;SDS011;4691;47.612;7.610;2023-01-30T17:54:09;20.45;;;11.98;;
9306;SDS011;4691;47.612;7.610;2023-01-30T17:56:35;20.10;;;10.80;;
9306;SDS011;4691;47.612;7.610;2023-01-30T17:59:03;29.15;;;15.30;;
9306;SDS011;4691;47.612;7.610;2023-01-30T18:01:30;23.02;;;12.43;;
9306;SDS011;4691;47.612;7.610;2023-01-30T18:03:55;92.15;;;32.40;;